Skopje-Petrovec, Macedonia

12:54 AM CEST on korrik 28, 2016 (GMT +0200)
Skopje | | Change Station

Elev 784 ft 41.97 °N, 21.65 °E | Updated -307 second ago

Clear
i kthjellet
68 °F
Feels Like 68 °F
N
2
Era e paqendrueshme Era from VL

Sot
High -- | Low -- °F
--% Chance of Precip.
Yesterday
High -- | Low -- °F
Precip. -- ne
Presioni 29.98 ne
Visioni -9999.0 milje
Clouds
Pika E Veses 63 °F
Lageshtira E ajrit 83%
Rainfall 0.00 ne
Snow Depth Not available.
5:23 AM 7:55 PM
Last Quarter, 39% visible
METAR LWSK 272300Z 05002KT CAVOK 20/17 Q1015 NOSIG
Presioni 29.98 ne
Visioni -9999.0 milje
Clouds
Pika E Veses 63 °F
Lageshtira E ajrit 83%
Rainfall 0.00 ne
Snow Depth Not available.
5:23 AM 7:55 PM
Last Quarter, 39% visible
METAR LWSK 272300Z 05002KT CAVOK 20/17 Q1015 NOSIG

10-Day Weather Forecast

×

Almanac

Astronomy

Jul. 28, 2016 Rise Set
Actual Time
Civil Twilight
Nautical Twilight
Astronomical Twilight
Moon
Length Of Visible Light
Length of Day
Tomorrow will be .
, % of the Moon is Illuminated

Today's Extremes

Country Highs Country Lows

Community

WunderPhotos

Upload Photos

1,927,951 photos uploaded!

WunderBlog® & News

Nearby

Air Quality

  Air Quality AQ Index Pollutant
Not available.

Snow Depth

Station Depth Elevation

Earthquake Activity

City Distance Mag. Time & Date
Minimum magnitude displayed is 2.5.

Coastal Water Temperatures

Vend Temperatura

Stations

Nearby Weather Stations

Station Location Temp Ftohtesia E erses Pika E Veses Lageshtira E ajrit Era Precip. Elev te freskuara(Te Dhenat) Type